Flight Track Log - Related Links

Times and Time Zones

All times are in EDT time to prevent confusion due to time zone crossing. See the CHQ5098 flight status page for this flight to view local times or setup timezone preferences in your user account.

Time Position Orientation Groundspeed Altitude Reporting Facility
EDT Latitude Longitude Course Direction KTS MPH feet Rate Location/Type
Sat 07:25:00 PM 42.0167 -87.8667 352° North 160 184 2,300  Level Chicago TRACON
Sat 07:26:56 PM 42.1092 -87.7928 31° Northeast 250 288 5,000 949 Climbing Chicago Center
Sat 07:27:00 PM 42.1986 -87.9743 340° North  Level FlightAware Approximate
Sat 07:27:57 PM 42.1781 -87.7956 358° North 250 288 5,100  Level Chicago Center
Sat 07:28:00 PM 42.2764 -87.9983 350° North  Level FlightAware Approximate
Sat 07:28:58 PM 42.2481 -87.7950 360° North 253 291 6,300  Level Chicago Center
Sat 07:29:00 PM 42.3548 -88.0191 340° North  Level FlightAware Approximate
Sat 07:30:00 PM 42.4309 -88.0528 352° North  Level FlightAware Approximate
Sat 07:30:00 PM 42.3317 -87.7950 360° North 254 292 10,000  Level Chicago Center
Sat 07:31:01 PM 42.4058 -87.7936 North 264 304 12,500 2,488 Climbing Chicago Center
Sat 07:32:03 PM 42.4803 -87.7900 North 268 308 15,100 1,951 Climbing Chicago Center
Sat 07:33:04 PM 42.5586 -87.7883 North 278 320 16,500 1,073 Climbing Chicago Center
Sat 07:34:06 PM 42.6469 -87.8031 353° North 313 360 17,300 732 Climbing Chicago Center
Sat 07:35:07 PM 42.7422 -87.8186 353° North 340 391 18,000 341 Climbing Chicago Center
Sat 07:36:09 PM 42.8592 -87.8389 353° North 362 417 18,000  Level Chicago Center
Sat 07:37:10 PM 42.9581 -87.8558 353° North 360 414 18,000  Level Chicago Center
Sat 07:38:12 PM 43.0556 -87.8736 352° North 356 410 18,000  Level Chicago Center
Sat 07:39:13 PM 43.1547 -87.8903 353° North 357 411 18,000  Level Chicago Center
Sat 07:40:14 PM 43.2542 -87.9086 352° North 361 415 18,000  Level Chicago Center
Sat 07:41:16 PM 43.3531 -87.9244 353° North 360 414 18,000 -634 Level Chicago Center
Sat 07:42:17 PM 43.4514 -87.9425 352° North 359 413 16,700 -1,756 Descending Chicago Center
Sat 07:43:19 PM 43.5644 -87.9625 353° North 353 406 14,400 -2,146 Descending Chicago Center
Sat 07:44:20 PM 43.6589 -87.9806 352° North 347 399 12,300 -2,000 Descending Chicago Center
Sat 07:44:55 PM 43.7033 -87.9878 353° North 338 389 11,200 -1,500 Descending Minneapolis Center
Sat 07:45:56 PM 43.7942 -88.0011 354° North 330 380 9,900 -639 Descending Minneapolis Center
Sat 07:46:57 PM 43.8819 -88.0175 352° North 322 371 9,900  Level Minneapolis Center
Sat 07:47:58 PM 43.9567 -88.0353 350° North 324 373 9,900  Level Minneapolis Center
Sat 07:48:59 PM 44.0753 -88.0625 351° North 324 373 9,900 -341 Level Minneapolis Center
Sat 07:50:01 PM 44.1483 -88.0758 353° North 264 304 9,200 -2,000 Descending Minneapolis Center
Sat 07:51:02 PM 44.2142 -88.0889 352° North 242 278 5,800 -2,754 Descending Minneapolis Center
Sat 07:52:03 PM 44.2811 -88.1092 348° North 244 281 3,600 -1,525 Descending Minneapolis Center
Sat 07:53:04 PM 44.3433 -88.1358 343° North 239 275 2,700 -885 Descending Minneapolis Center

Login

Don't have an account? Register now (free) for customized features, flight alerts, and more!